メインページ
METAR-TAF:

METAR-TAF

空港 :

ダマスカス, シリア

ダマスカス国際空港

緯度: 33-25N, 経度: 036-31E, 海抜: 608m

現時点の気象観測

当レポートは24分前の06:00(UTC)に作成
無風
気温 3°C
湿度 93%
気圧 1019 hPa
視程: 2000m

METAR: OSDI 140600Z 00000KT 2000 BR 03/02 Q1019

時間: 08:24 (06:24 UTC)

予報

予報は14日の 06時(UTC)から 15日の 12時(UTC)まで有効
変向風 3kt
視程: 0500m
14日の 07時(UTC)から 14日の 08時(UTC)まで徐々に
視程: 4000m
14日の 09時(UTC)から 14日の 11時(UTC)まで徐々に
南西の風 12kt
視程: 7000m
高度3000ftの雲は散在している

TAF: OSDI 1406/1512 VRB03KT 0500 FG BECMG 1407/1408 4000 BR BECMG 1409/1411 23012KT 7000 SCT030

4,000以上の空港の気象観測と天気予報(METAR報とTAF報)

利用可能な観測所は地図上に黄色い丸と赤い丸で示す。

丸の上にカーソルを重ねると観測所名を参照できる。

次にクリックすると気象観測と天気予報を参照できる。

マップの切り替え:黒色「×」印の緑ボタンをクリックして拡大、「-」印の緑ボタンをクリックして縮小、緑色の三角印をクリックして隣りの地図に切り替え


METAR-TAF: